Time;durP1;ratioP1;P1;durP2;ratioP2;P2;SDS_P1;SDS_P2;PMS_P1;PMS_P2;Temp;Humidity;BMP_temperature;BMP_pressure;BME280_temperature;BME280_humidity;BME280_pressure;Samples;Min_cycle;Max_cycle;Signal;HPM_P1;HPM_P2
2022/01/01 00:02:00;;;;;;;;;33.50;31.75;;;;;12.86;77.89;102223.78;5108978;27;45294;-66
2022/01/01 00:04:25;;;;;;;;;37.25;34.75;;;;;12.99;77.92;102240.22;5104219;27;45619;-68
2022/01/01 00:06:50;;;;;;;;;106.67;97.67;;;;;13.03;78.14;102250.97;5109831;27;45437;-67
2022/01/01 00:09:16;;;;;;;;;50.75;40.25;;;;;13.08;77.77;102252.00;5095592;27;45267;-66
2022/01/01 00:11:41;;;;;;;;;36.50;28.25;;;;;13.11;78.08;102250.41;5090163;27;45471;-66
2022/01/01 00:14:06;;;;;;;;;38.00;31.50;;;;;13.12;77.80;102252.19;5083156;27;45508;-66
2022/01/01 00:16:32;;;;;;;;;45.50;35.50;;;;;13.10;77.81;102250.31;5090524;27;45533;-66
2022/01/01 00:18:57;;;;;;;;;30.75;27.25;;;;;13.07;77.59;102239.59;5083178;27;45402;-66
2022/01/01 00:21:23;;;;;;;;;32.50;30.75;;;;;13.11;77.39;102246.84;5084348;27;45950;-66
2022/01/01 00:23:48;;;;;;;;;43.00;35.25;;;;;13.18;77.51;102257.72;5085136;27;45507;-66
2022/01/01 00:26:14;;;;;;;;;52.75;42.25;;;;;13.15;77.40;102238.13;5091618;27;46312;-66
2022/01/01 00:28:40;;;;;;;;;42.75;35.00;;;;;13.20;77.41;102247.19;5086369;27;45389;-66
2022/01/01 00:31:07;;;;;;;;;41.75;34.75;;;;;13.13;77.38;102240.72;5093359;27;45394;-66
2022/01/01 00:33:33;;;;;;;;;48.00;38.00;;;;;13.14;77.47;102236.34;5085775;27;45326;-66
2022/01/01 00:35:58;;;;;;;;;39.00;32.50;;;;;13.15;77.44;102244.34;5091836;27;45954;-66
2022/01/01 00:38:24;;;;;;;;;49.25;39.75;;;;;13.19;77.20;102248.94;5096893;27;45622;-66
2022/01/01 00:40:50;;;;;;;;;59.00;48.25;;;;;13.12;77.39;102232.72;5093477;27;45302;-66
2022/01/01 00:43:15;;;;;;;;;50.50;43.25;;;;;13.10;77.28;102229.09;5098535;27;45400;-66
2022/01/01 00:45:40;;;;;;;;;43.75;35.75;;;;;13.17;77.14;102242.66;5096153;27;45442;-66
2022/01/01 00:48:06;;;;;;;;;40.25;34.75;;;;;13.13;77.29;102247.78;5109145;27;45446;-65
2022/01/01 00:50:32;;;;;;;;;38.50;32.00;;;;;13.11;77.22;102241.53;5085802;27;45381;-66
2022/01/01 00:52:58;;;;;;;;;37.75;33.50;;;;;13.21;77.12;102256.94;5084861;27;45350;-65
2022/01/01 00:55:24;;;;;;;;;42.25;33.50;;;;;13.14;77.17;102246.97;5090925;27;45363;-66
2022/01/01 00:57:49;;;;;;;;;33.75;31.75;;;;;13.11;77.13;102236.22;5085862;27;45350;-66
2022/01/01 01:00:15;;;;;;;;;35.75;31.00;;;;;13.18;77.04;102252.41;5093826;27;45350;-65
2022/01/01 01:02:41;;;;;;;;;31.00;27.75;;;;;13.16;77.08;102239.94;5083132;27;46904;-66
2022/01/01 01:05:07;;;;;;;;;42.75;32.75;;;;;13.19;76.80;102245.34;5088488;27;45390;-65
2022/01/01 01:07:32;;;;;;;;;37.00;33.25;;;;;13.09;77.38;102230.84;5083279;27;45250;-66
2022/01/01 01:09:57;;;;;;;;;31.25;27.00;;;;;13.07;77.28;102232.53;5089330;27;45707;-66
2022/01/01 01:12:27;;;;;;;;;38.25;32.75;;;;;13.11;77.46;102237.13;5079881;27;45248;-66
2022/01/01 01:14:53;;;;;;;;;41.50;32.25;;;;;13.07;77.19;102231.63;5102170;27;48227;-66
2022/01/01 01:17:18;;;;;;;;;40.00;34.75;;;;;13.05;77.15;102228.94;5092126;27;45676;-66
2022/01/01 01:19:44;;;;;;;;;34.50;31.00;;;;;13.05;76.70;102236.91;5084945;27;45391;-66
2022/01/01 01:22:10;;;;;;;;;40.25;34.75;;;;;12.99;76.91;102229.63;5091559;27;45435;-66
2022/01/01 01:24:35;;;;;;;;;39.75;34.50;;;;;12.92;76.81;102224.00;5082330;27;47022;-65
2022/01/01 01:27:03;;;;;;;;;31.25;31.00;;;;;12.83;77.30;102221.91;5094978;27;45677;-66
2022/01/01 01:29:31;;;;;;;;;33.00;31.75;;;;;12.90;77.15;102233.66;5088061;27;45279;-66
2022/01/01 01:31:56;;;;;;;;;35.00;29.75;;;;;12.86;77.23;102231.75;5092750;27;45477;-66
2022/01/01 01:34:22;;;;;;;;;32.00;31.00;;;;;12.90;76.67;102242.50;5082042;27;45667;-66
2022/01/01 01:36:47;;;;;;;;;35.25;31.75;;;;;12.80;76.59;102220.88;5092383;27;45095;-66
2022/01/01 01:39:13;;;;;;;;;28.25;28.00;;;;;12.87;76.42;102237.09;5094895;27;44874;-66
2022/01/01 01:41:42;;;;;;;;;33.25;31.50;;;;;12.75;76.41;102216.31;5090541;27;45504;-66
2022/01/01 01:44:28;;;;;;;;;34.25;31.75;;;;;12.74;76.93;102227.78;5081944;27;45508;-66
2022/01/01 01:46:54;;;;;;;;;47.50;34.50;;;;;12.40;76.57;102177.81;5086935;27;45596;-66
2022/01/01 01:49:19;;;;;;;;;47.75;35.50;;;;;12.62;76.56;102223.72;5081779;27;45548;-66
2022/01/01 01:51:44;;;;;;;;;38.00;33.50;;;;;12.63;76.80;102236.16;5084857;27;46117;-66
2022/01/01 01:54:10;;;;;;;;;47.25;36.00;;;;;12.59;76.72;102235.13;5081564;27;45476;-66
2022/01/01 01:56:37;;;;;;;;;43.75;37.50;;;;;12.52;76.42;102235.75;5092753;27;45291;-66
2022/01/01 01:59:02;;;;;;;;;51.50;37.25;;;;;12.40;76.93;102229.94;5096396;27;45374;-66
2022/01/01 02:01:28;;;;;;;;;42.75;34.75;;;;;12.36;77.16;102230.69;5087328;27;45341;-66
2022/01/01 02:03:56;;;;;;;;;42.75;35.25;;;;;12.34;77.11;102235.91;5080292;27;46596;-67
2022/01/01 02:06:23;;;;;;;;;45.00;36.75;;;;;12.17;77.55;102224.63;5089675;27;45189;-66
2022/01/01 02:08:50;;;;;;;;;47.50;40.00;;;;;12.20;77.37;102245.94;5088676;27;45263;-66
2022/01/01 02:11:20;;;;;;;;;44.50;37.25;;;;;12.07;77.40;102225.06;5088084;27;46077;-66
2022/01/01 02:18:49;;;;;;;;;47.75;35.75;;;;;11.99;78.19;102230.09;5084695;27;45222;-66
2022/01/01 02:21:15;;;;;;;;;45.75;36.50;;;;;11.94;78.44;102228.09;5084875;27;47606;-67
2022/01/01 02:23:46;;;;;;;;;41.75;36.50;;;;;12.02;77.69;102254.06;5090363;27;46291;-66
2022/01/01 02:26:15;;;;;;;;;40.00;34.25;;;;;11.99;77.74;102248.63;5095088;27;45330;-66
2022/01/01 02:28:47;;;;;;;;;43.50;36.00;;;;;11.95;77.92;102236.06;5084481;27;45330;-67
2022/01/01 02:31:15;;;;;;;;;45.25;37.75;;;;;11.93;77.80;102235.13;5094226;27;45361;-66
2022/01/01 02:33:42;;;;;;;;;39.00;34.50;;;;;11.91;77.61;102242.09;5084837;27;46654;-66
2022/01/01 02:36:08;;;;;;;;;42.75;36.00;;;;;11.76;77.85;102212.25;5116601;27;45425;-66
2022/01/01 02:38:34;;;;;;;;;46.50;36.50;;;;;11.83;78.19;102233.78;5111232;27;45420;-66
2022/01/01 02:41:00;;;;;;;;;44.50;38.75;;;;;11.73;78.48;102217.44;5102048;27;45640;-67
2022/01/01 02:43:25;;;;;;;;;40.00;36.00;;;;;11.79;78.78;102223.00;5105170;27;45473;-67
2022/01/01 02:45:52;;;;;;;;;56.75;45.50;;;;;11.75;78.40;102218.41;5111783;27;45421;-66
2022/01/01 02:48:17;;;;;;;;;46.00;37.25;;;;;11.65;78.02;102203.91;5113808;27;45254;-67
2022/01/01 02:50:43;;;;;;;;;47.75;40.50;;;;;11.67;78.83;102222.47;5103459;27;45298;-66
2022/01/01 02:53:15;;;;;;;;;48.75;38.25;;;;;11.63;78.43;102225.00;5108331;27;45470;-67
2022/01/01 02:55:43;;;;;;;;;43.25;38.00;;;;;11.60;78.12;102222.22;5093522;27;45489;-66
2022/01/01 02:58:13;;;;;;;;;41.50;35.25;;;;;11.55;78.38;102221.13;5080753;27;45205;-66
2022/01/01 03:00:40;;;;;;;;;38.00;32.25;;;;;11.59;79.09;102231.00;5105947;27;45454;-66
2022/01/01 03:03:05;;;;;;;;;36.75;34.75;;;;;11.52;78.18;102213.03;5115492;27;48290;-66
2022/01/01 03:05:31;;;;;;;;;43.50;35.25;;;;;11.54;78.99;102235.22;5095699;27;45300;-66
2022/01/01 03:07:57;;;;;;;;;38.00;31.25;;;;;11.47;78.26;102217.22;5086053;27;45326;-67
2022/01/01 03:10:23;;;;;;;;;40.00;34.25;;;;;11.46;78.76;102225.13;5095855;27;45289;-66
2022/01/01 03:12:49;;;;;;;;;39.50;34.75;;;;;11.43;78.74;102217.94;5114780;27;45637;-66
2022/01/01 03:15:14;;;;;;;;;37.50;34.50;;;;;11.43;80.00;102226.78;5112015;27;45252;-66
2022/01/01 03:17:40;;;;;;;;;38.75;32.50;;;;;11.27;79.31;102200.47;5114967;27;45401;-66
2022/01/01 03:20:07;;;;;;;;;34.75;32.00;;;;;11.43;79.89;102237.38;5112046;27;45435;-67
2022/01/01 03:22:32;;;;;;;;;33.00;30.00;;;;;11.37;80.35;102221.25;5102022;27;47283;-66
2022/01/01 03:24:57;;;;;;;;;44.75;35.25;;;;;11.39;79.92;102223.94;5097766;27;45338;-66
2022/01/01 03:27:23;;;;;;;;;35.50;31.00;;;;;11.31;78.82;102220.94;5112988;27;45364;-66
2022/01/01 03:29:48;;;;;;;;;38.50;32.50;;;;;11.41;78.59;102240.78;5092354;27;45308;-66
2022/01/01 03:32:15;;;;;;;;;33.25;31.25;;;;;11.36;78.88;102223.81;5091006;27;46522;-66
2022/01/01 03:34:41;;;;;;;;;37.50;32.75;;;;;11.40;78.65;102225.75;5089306;27;45335;-66
2022/01/01 03:37:07;;;;;;;;;36.75;32.50;;;;;11.37;79.49;102217.66;5096877;27;45444;-66
2022/01/01 03:39:32;;;;;;;;;37.75;32.50;;;;;11.36;80.02;102219.41;5094877;27;45247;-68
2022/01/01 03:41:57;;;;;;;;;37.00;30.25;;;;;11.35;79.51;102220.25;5089908;27;47130;-67
2022/01/01 03:44:23;;;;;;;;;33.50;29.75;;;;;11.31;79.23;102199.75;5082525;27;45800;-66
2022/01/01 03:46:49;;;;;;;;;33.50;33.00;;;;;11.30;79.18;102210.31;5090179;27;45377;-66
2022/01/01 03:49:14;;;;;;;;;31.50;28.50;;;;;11.31;78.79;102212.09;5083582;27;45316;-66
2022/01/01 03:51:41;;;;;;;;;36.25;33.00;;;;;11.32;78.37;102220.13;5086421;27;45669;-66
2022/01/01 03:54:06;;;;;;;;;36.00;31.75;;;;;11.25;79.18;102210.09;5083489;27;45380;-66
2022/01/01 03:56:32;;;;;;;;;31.50;30.50;;;;;11.27;78.13;102229.59;5105377;27;45442;-66
2022/01/01 03:58:57;;;;;;;;;34.25;30.50;;;;;11.19;78.89;102210.72;5099565;27;45477;-66
2022/01/01 04:01:22;;;;;;;;;31.25;30.50;;;;;11.15;79.15;102208.78;5100407;27;46324;-66
2022/01/01 04:03:48;;;;;;;;;31.50;27.75;;;;;11.10;79.65;102210.31;5103674;27;45484;-66
2022/01/01 04:06:13;;;;;;;;;38.25;33.75;;;;;11.08;79.53;102204.03;5107158;27;45689;-66
2022/01/01 04:08:38;;;;;;;;;32.00;31.50;;;;;11.09;79.43;102202.28;5108848;27;45583;-65
2022/01/01 04:11:04;;;;;;;;;38.50;30.75;;;;;10.97;79.26;102186.78;5097726;27;48364;-66
2022/01/01 04:13:29;;;;;;;;;40.75;33.25;;;;;11.07;79.59;102210.19;5109784;27;45318;-66
2022/01/01 04:15:55;;;;;;;;;37.25;32.00;;;;;11.00;78.92;102201.91;5096146;27;45530;-66
2022/01/01 04:18:38;;;;;;;;;34.50;33.00;;;;;10.97;80.58;102207.94;5108883;27;45302;-66
2022/01/01 04:21:08;;;;;;;;;36.00;32.50;;;;;10.96;79.80;102201.75;5102288;27;45491;-66
2022/01/01 04:23:34;;;;;;;;;43.75;34.00;;;;;10.93;80.33;102193.69;5105611;27;45384;-66
2022/01/01 04:26:00;;;;;;;;;34.25;32.75;;;;;10.98;79.46;102207.13;5105113;27;45291;-66
2022/01/01 04:28:25;;;;;;;;;37.25;33.25;;;;;10.90;79.81;102190.00;5118314;27;45699;-66
2022/01/01 04:30:50;;;;;;;;;31.25;30.75;;;;;10.84;79.55;102181.75;5099455;27;46265;-66
2022/01/01 04:33:16;;;;;;;;;44.00;36.00;;;;;10.87;79.66;102174.91;5117365;27;45369;-66
2022/01/01 04:35:41;;;;;;;;;35.00;30.50;;;;;10.86;80.97;102186.28;5097575;27;45166;-66
2022/01/01 04:38:14;;;;;;;;;42.50;32.75;;;;;10.92;79.90;102198.91;5119349;27;45459;-66
2022/01/01 04:40:40;;;;;;;;;38.75;35.00;;;;;10.80;80.28;102179.84;5099547;27;47686;-66
2022/01/01 04:43:05;;;;;;;;;39.50;31.50;;;;;10.83;80.46;102195.84;5106681;27;45267;-66
2022/01/01 04:45:30;;;;;;;;;42.25;33.00;;;;;10.84;79.96;102201.22;5092751;27;46028;-66
2022/01/01 04:47:56;;;;;;;;;34.00;30.75;;;;;10.73;81.40;102176.91;5114010;27;45217;-66
2022/01/01 04:50:21;;;;;;;;;33.50;30.50;;;;;10.83;80.18;102201.13;5100837;27;46252;-66
2022/01/01 04:52:46;;;;;;;;;42.75;34.50;;;;;10.74;80.35;102183.09;5103118;27;45413;-66
2022/01/01 04:55:12;;;;;;;;;38.50;31.75;;;;;10.78;80.48;102195.63;5097037;27;45293;-66
2022/01/01 04:57:37;;;;;;;;;35.50;32.25;;;;;10.70;79.65;102182.06;5102615;27;45460;-66
2022/01/01 05:00:03;;;;;;;;;33.75;29.50;;;;;10.73;79.31;102192.78;5099589;27;46849;-66
2022/01/01 05:02:28;;;;;;;;;37.25;34.50;;;;;10.72;79.57;102187.41;5100781;27;45299;-66
2022/01/01 05:04:54;;;;;;;;;38.00;30.00;;;;;10.74;80.42;102206.91;5100934;27;46681;-66
2022/01/01 05:07:20;;;;;;;;;36.25;30.00;;;;;10.69;80.18;102204.03;5099973;27;45408;-66
2022/01/01 05:09:45;;;;;;;;;26.50;25.25;;;;;10.75;79.67;102220.22;5095772;27;48338;-67
2022/01/01 05:12:11;;;;;;;;;33.50;31.25;;;;;10.73;79.65;102213.03;5099095;27;45442;-66
2022/01/01 05:14:36;;;;;;;;;32.00;28.50;;;;;10.68;80.26;102212.81;5103767;27;45529;-65
2022/01/01 05:17:02;;;;;;;;;30.75;28.75;;;;;10.65;81.22;102219.72;5106310;27;45485;-66
2022/01/01 05:19:27;;;;;;;;;32.00;29.75;;;;;10.64;80.18;102215.22;5104494;27;46340;-66
2022/01/01 05:21:55;;;;;;;;;32.50;30.00;;;;;10.67;80.16;102218.00;5096671;27;45380;-65
2022/01/01 05:24:22;;;;;;;;;34.00;27.75;;;;;10.64;80.16;102218.81;5109139;27;45520;-66
2022/01/01 05:26:48;;;;;;;;;37.50;32.00;;;;;10.58;81.88;102205.28;5111255;27;45265;-66
2022/01/01 05:29:13;;;;;;;;;31.25;29.25;;;;;10.58;80.20;102212.31;5094880;27;45402;-65
2022/01/01 05:31:39;;;;;;;;;30.50;30.25;;;;;10.53;80.33;102202.44;5097434;27;45241;-66
2022/01/01 05:34:04;;;;;;;;;35.00;28.25;;;;;10.53;79.83;102189.22;5097488;27;45411;-65
2022/01/01 05:36:30;;;;;;;;;29.25;27.75;;;;;10.51;80.23;102196.16;5102900;27;45987;-66
2022/01/01 05:38:55;;;;;;;;;35.75;32.00;;;;;10.53;79.77;102191.88;5108555;27;45309;-65
2022/01/01 05:41:21;;;;;;;;;30.50;28.50;;;;;10.53;79.76;102194.50;5103081;27;45436;-65
2022/01/01 05:43:46;;;;;;;;;31.75;23.75;;;;;10.52;80.94;102187.38;5095349;27;45533;-65
2022/01/01 05:46:12;;;;;;;;;28.25;27.75;;;;;10.49;80.14;102189.00;5095703;27;45430;-65
2022/01/01 05:48:38;;;;;;;;;26.75;22.50;;;;;10.51;80.59;102195.25;5109960;27;45381;-66
2022/01/01 05:51:04;;;;;;;;;28.25;25.00;;;;;10.50;80.73;102206.66;5098655;27;45470;-66
2022/01/01 05:53:29;;;;;;;;;24.50;17.00;;;;;10.45;80.57;102194.97;5099482;27;45212;-66
2022/01/01 05:55:55;;;;;;;;;28.50;26.25;;;;;10.36;81.13;102189.22;5101690;27;45218;-66
2022/01/01 05:58:20;;;;;;;;;27.25;24.00;;;;;10.27;80.32;102176.50;5103038;27;48257;-67
2022/01/01 06:00:46;;;;;;;;;26.50;22.50;;;;;10.41;80.18;102195.66;5104771;27;45224;-66
2022/01/01 06:03:11;;;;;;;;;27.25;23.50;;;;;10.40;79.62;102193.84;5110047;27;45217;-66
2022/01/01 06:05:37;;;;;;;;;25.75;21.75;;;;;10.39;79.91;102184.09;5093382;27;45405;-66
2022/01/01 06:08:03;;;;;;;;;27.00;24.00;;;;;10.40;80.43;102199.13;5107257;27;45456;-66
2022/01/01 06:10:28;;;;;;;;;29.50;27.00;;;;;10.40;80.56;102201.78;5098601;27;45361;-66
2022/01/01 06:12:54;;;;;;;;;26.25;21.00;;;;;10.39;79.68;102202.59;5102615;27;45234;-66
2022/01/01 06:15:21;;;;;;;;;29.50;26.00;;;;;10.37;80.00;102205.19;5104250;27;45728;-66
2022/01/01 06:17:46;;;;;;;;;32.50;25.00;;;;;10.26;79.52;102196.69;5113055;27;47182;-66
2022/01/01 06:20:12;;;;;;;;;23.75;22.25;;;;;10.28;80.59;102191.53;5103684;27;46851;-66
2022/01/01 06:22:38;;;;;;;;;29.75;27.50;;;;;10.25;80.42;102191.31;5108606;27;45443;-66
2022/01/01 06:25:04;;;;;;;;;30.25;26.50;;;;;10.21;80.01;102192.03;5097012;27;45556;-66
2022/01/01 06:27:30;;;;;;;;;30.75;25.25;;;;;10.18;80.59;102189.25;5107025;27;45706;-66
2022/01/01 06:29:55;;;;;;;;;29.25;23.00;;;;;10.22;80.66;102192.13;5094068;27;45416;-66
2022/01/01 06:32:21;;;;;;;;;26.25;23.75;;;;;10.12;80.35;102187.22;5116151;27;45304;-66
2022/01/01 06:34:46;;;;;;;;;29.25;25.00;;;;;10.15;80.85;102197.91;5107608;27;47004;-66
2022/01/01 06:37:12;;;;;;;;;25.50;24.25;;;;;10.02;80.78;102177.00;5106597;27;45450;-66
2022/01/01 06:39:37;;;;;;;;;31.00;27.25;;;;;10.06;80.49;102189.56;5101133;27;45327;-66
2022/01/01 06:42:03;;;;;;;;;28.00;27.75;;;;;9.99;80.69;102177.75;5105218;27;45389;-66
2022/01/01 06:44:29;;;;;;;;;30.50;27.50;;;;;9.95;81.40;102178.47;5092536;27;45399;-66
2022/01/01 06:46:54;;;;;;;;;25.75;24.50;;;;;9.97;79.95;102171.53;5101750;27;46323;-66
2022/01/01 06:49:20;;;;;;;;;28.25;23.75;;;;;9.95;80.23;102175.81;5102669;27;45344;-66
2022/01/01 06:51:45;;;;;;;;;27.50;27.25;;;;;9.98;80.96;102183.91;5101428;27;45340;-66
2022/01/01 06:54:11;;;;;;;;;28.25;26.25;;;;;9.91;81.20;102187.06;5095818;27;45458;-67
2022/01/01 06:56:36;;;;;;;;;29.25;26.25;;;;;9.95;81.35;102190.78;5099901;27;45366;-67
2022/01/01 06:59:02;;;;;;;;;23.00;20.75;;;;;9.98;80.79;102199.75;5094691;27;45482;-66
2022/01/01 07:01:28;;;;;;;;;21.00;21.00;;;;;9.98;81.04;102190.91;5100098;27;45408;-66
2022/01/01 07:03:53;;;;;;;;;22.50;22.50;;;;;9.96;80.67;102193.47;5100199;27;45280;-66
2022/01/01 07:06:18;;;;;;;;;29.00;27.25;;;;;9.96;80.80;102188.19;5095670;27;47376;-66
2022/01/01 07:08:44;;;;;;;;;28.75;25.00;;;;;9.90;80.49;102177.31;5095583;27;45290;-67
2022/01/01 07:11:09;;;;;;;;;27.75;25.00;;;;;10.00;80.29;102186.63;5098705;27;45229;-67
2022/01/01 07:13:34;;;;;;;;;28.25;23.00;;;;;9.91;79.48;102171.19;5105629;27;45165;-67
2022/01/01 07:16:00;;;;;;;;;25.25;24.75;;;;;9.85;80.38;102169.16;5099755;27;45442;-66
2022/01/01 07:18:25;;;;;;;;;24.75;23.25;;;;;9.92;80.43;102177.41;5108745;27;45300;-67
2022/01/01 07:20:51;;;;;;;;;28.00;24.75;;;;;9.81;80.39;102169.84;5104560;27;45307;-67
2022/01/01 07:23:16;;;;;;;;;27.50;25.50;;;;;9.92;80.36;102188.88;5111009;27;45236;-66
2022/01/01 07:25:41;;;;;;;;;32.50;27.75;;;;;9.92;80.32;102193.25;5101732;27;45366;-66
2022/01/01 07:28:07;;;;;;;;;35.50;26.75;;;;;9.74;80.27;102169.47;5111481;27;45298;-66
2022/01/01 07:30:33;;;;;;;;;28.75;28.25;;;;;9.77;80.48;102175.81;5098968;27;45275;-66
2022/01/01 07:32:58;;;;;;;;;29.75;26.00;;;;;9.83;79.93;102198.97;5107343;27;45468;-66
2022/01/01 07:35:24;;;;;;;;;37.00;30.00;;;;;9.78;80.17;102190.84;5100262;27;45432;-67
2022/01/01 07:37:49;;;;;;;;;34.00;28.00;;;;;9.75;80.29;102190.69;5116350;27;45348;-67
2022/01/01 07:40:16;;;;;;;;;31.25;28.75;;;;;9.81;79.81;102200.66;5099908;27;45322;-66
2022/01/01 07:42:43;;;;;;;;;32.75;28.00;;;;;9.77;80.25;102188.09;5106915;27;45468;-66
2022/01/01 07:45:10;;;;;;;;;28.25;27.00;;;;;9.77;80.23;102189.00;5094087;27;46256;-67
2022/01/01 07:47:35;;;;;;;;;31.25;28.00;;;;;9.71;81.49;102187.81;5111341;27;45450;-66
2022/01/01 07:50:01;;;;;;;;;28.25;23.75;;;;;9.50;80.41;102158.59;5098938;27;45367;-66
2022/01/01 07:52:27;;;;;;;;;29.50;26.50;;;;;9.64;80.19;102181.31;5107596;27;46668;-66
2022/01/01 07:54:52;;;;;;;;;37.25;28.50;;;;;9.72;80.24;102198.47;5098646;27;45332;-66
2022/01/01 07:57:17;;;;;;;;;33.50;30.00;;;;;9.71;80.03;102196.63;5110739;27;46015;-66
2022/01/01 07:59:43;;;;;;;;;34.50;29.50;;;;;9.69;79.98;102187.75;5108464;27;45417;-66
2022/01/01 08:02:08;;;;;;;;;30.50;25.75;;;;;9.71;80.23;102199.25;5115331;27;47041;-66
2022/01/01 08:04:34;;;;;;;;;29.25;26.25;;;;;9.71;80.08;102198.38;5098852;27;45436;-67
2022/01/01 08:07:01;;;;;;;;;25.75;22.75;;;;;9.68;79.74;102199.13;5100848;27;45367;-66
2022/01/01 08:09:27;;;;;;;;;30.25;27.00;;;;;9.70;80.49;102201.84;5099584;27;45422;-67
2022/01/01 08:11:54;;;;;;;;;22.75;20.00;;;;;9.61;79.90;102181.16;5100758;27;45456;-66
2022/01/01 08:14:20;;;;;;;;;29.25;27.50;;;;;9.59;80.17;102177.53;5106143;27;46139;-66
2022/01/01 08:17:14;;;;;;;;;33.50;23.75;;;;;9.68;80.54;102198.22;5106131;27;45286;-67
2022/01/01 08:19:40;;;;;;;;;27.00;23.50;;;;;9.51;79.79;102163.03;5101060;27;45459;-66
2022/01/01 08:22:05;;;;;;;;;28.25;25.50;;;;;9.63;80.08;102180.44;5106623;27;45457;-66
2022/01/01 08:24:31;;;;;;;;;28.75;23.75;;;;;9.60;79.99;102172.31;5110484;27;45366;-66
2022/01/01 08:26:56;;;;;;;;;33.00;24.50;;;;;9.55;80.49;102165.94;5111932;27;45452;-66
2022/01/01 08:29:22;;;;;;;;;31.25;27.25;;;;;9.65;80.13;102180.47;5096384;27;45285;-66
2022/01/01 08:31:50;;;;;;;;;26.75;26.75;;;;;9.74;80.22;102185.31;5098585;27;46975;-66
2022/01/01 08:34:15;;;;;;;;;28.50;27.25;;;;;9.66;80.29;102166.44;5105920;27;45371;-66
2022/01/01 08:36:40;;;;;;;;;25.25;21.50;;;;;9.66;79.39;102158.53;5106616;27;45407;-66
2022/01/01 08:39:07;;;;;;;;;30.50;26.25;;;;;9.68;80.34;102155.97;5108727;27;45317;-66
2022/01/01 08:41:32;;;;;;;;;28.00;22.75;;;;;9.76;80.67;102175.75;5104546;27;45403;-66
2022/01/01 08:43:57;;;;;;;;;28.25;24.50;;;;;9.68;80.06;102166.53;5099971;27;45358;-66
2022/01/01 08:46:23;;;;;;;;;27.25;21.75;;;;;9.69;80.22;102173.63;5097954;27;45397;-67
2022/01/01 08:48:48;;;;;;;;;19.50;18.25;;;;;9.68;79.90;102167.44;5110936;27;46657;-66
2022/01/01 08:51:20;;;;;;;;;22.00;20.75;;;;;9.70;80.72;102180.72;5100626;27;45606;-66
2022/01/01 08:53:47;;;;;;;;;22.50;20.00;;;;;9.76;80.29;102183.66;5097924;27;46320;-66
2022/01/01 08:56:13;;;;;;;;;19.25;18.00;;;;;9.73;80.73;102187.06;5098280;27;45496;-68
2022/01/01 08:58:39;;;;;;;;;28.50;24.25;;;;;9.79;80.84;102190.00;5105403;27;45446;-68
2022/01/01 09:01:06;;;;;;;;;25.50;21.25;;;;;9.81;80.68;102182.16;5097393;27;45564;-66
2022/01/01 09:03:35;;;;;;;;;23.00;21.75;;;;;9.85;79.72;102184.09;5103597;27;45359;-67
2022/01/01 09:06:05;;;;;;;;;25.00;20.00;;;;;9.81;80.35;102177.78;5097304;27;45459;-66
2022/01/01 09:08:32;;;;;;;;;24.00;21.50;;;;;9.83;80.51;102172.56;5099652;27;45306;-67
2022/01/01 09:10:58;;;;;;;;;19.25;17.25;;;;;9.84;79.94;102159.44;5103379;27;45249;-67
2022/01/01 09:13:23;;;;;;;;;21.50;20.25;;;;;9.91;80.25;102154.47;5106416;27;45712;-67
2022/01/01 09:15:49;;;;;;;;;23.50;20.00;;;;;9.95;79.38;102157.34;5102408;27;45441;-66
2022/01/01 09:18:15;;;;;;;;;24.25;22.00;;;;;10.01;80.00;102148.81;5110288;27;45246;-67
2022/01/01 09:20:40;;;;;;;;;23.75;19.25;;;;;10.03;79.54;102145.41;5102657;27;45565;-67
2022/01/01 09:23:05;;;;;;;;;22.50;21.25;;;;;9.99;80.78;102139.88;5109002;27;46246;-66
2022/01/01 09:25:31;;;;;;;;;15.50;13.50;;;;;9.98;79.11;102122.25;5095197;27;45441;-67
2022/01/01 09:27:56;;;;;;;;;19.75;16.75;;;;;10.12;79.35;102130.81;5105501;27;45766;-67
2022/01/01 09:30:22;;;;;;;;;21.75;14.25;;;;;10.08;79.20;102113.91;5106253;27;47110;-67
2022/01/01 09:32:47;;;;;;;;;25.00;20.50;;;;;10.17;78.86;102114.34;5105931;27;45521;-68
2022/01/01 09:35:15;;;;;;;;;30.75;26.00;;;;;10.23;79.48;102124.31;5094349;27;45468;-66
2022/01/01 09:37:40;;;;;;;;;20.25;19.50;;;;;10.31;78.52;102133.53;5105839;27;45416;-67
2022/01/01 09:40:06;;;;;;;;;19.00;18.00;;;;;10.37;78.61;102140.84;5098632;27;45495;-66
2022/01/01 09:42:32;;;;;;;;;18.75;18.50;;;;;10.37;78.52;102138.22;5104258;27;45938;-67
2022/01/01 09:44:58;;;;;;;;;21.00;18.75;;;;;10.40;78.07;102136.59;5101765;27;45447;-66
2022/01/01 09:47:25;;;;;;;;;17.75;17.75;;;;;10.42;78.05;102128.72;5102645;27;45512;-66
2022/01/01 09:49:51;;;;;;;;;25.75;18.75;;;;;10.47;78.51;102121.91;5100850;27;45560;-66
2022/01/01 09:52:17;;;;;;;;;17.00;17.00;;;;;10.46;78.24;102113.09;5102051;27;45434;-66
2022/01/01 09:54:43;;;;;;;;;17.25;16.00;;;;;10.59;78.65;102129.53;5097519;27;45451;-66
2022/01/01 09:57:10;;;;;;;;;15.25;15.00;;;;;10.61;77.40;102127.84;5100816;27;45516;-66
2022/01/01 09:59:37;;;;;;;;;18.25;16.00;;;;;10.65;77.06;102130.69;5100487;27;45458;-66
2022/01/01 10:02:03;;;;;;;;;21.00;15.50;;;;;10.72;77.67;102129.22;5097869;27;48080;-65
2022/01/01 10:04:43;;;;;;;;;17.00;17.00;;;;;10.77;77.55;102134.72;5096471;27;45480;-65
2022/01/01 10:07:09;;;;;;;;;19.75;16.50;;;;;10.84;77.65;102135.09;5094408;27;45303;-65
2022/01/01 10:09:39;;;;;;;;;12.50;12.50;;;;;10.68;76.50;102093.81;5094834;27;46051;-66
2022/01/01 10:12:06;;;;;;;;;18.50;16.00;;;;;11.05;75.76;102140.41;5106133;27;46134;-66
2022/01/01 10:14:46;;;;;;;;;17.50;16.00;;;;;11.19;76.62;102133.06;5104596;27;45399;-66
2022/01/01 10:17:20;;;;;;;;;18.25;15.00;;;;;11.29;75.67;102114.09;5093365;27;45647;-66
2022/01/01 10:19:50;;;;;;;;;17.75;16.50;;;;;11.53;75.44;102127.44;5104971;27;45442;-66
2022/01/01 10:22:19;;;;;;;;;17.00;17.00;;;;;11.67;75.37;102130.69;5112851;27;45607;-66
2022/01/01 10:27:44;;;;;;;;;24.00;22.00;;;;;11.90;74.18;102114.84;5109054;27;45583;-66
2022/01/01 10:30:18;;;;;;;;;19.50;16.50;;;;;12.05;72.48;102120.78;5095733;27;45356;-66
2022/01/01 10:33:09;;;;;;;;;17.75;16.25;;;;;12.21;73.18;102131.13;5106070;27;45396;-66
2022/01/01 10:35:44;;;;;;;;;16.00;14.25;;;;;12.32;72.95;102129.81;5096588;27;45453;-66
2022/01/01 10:38:11;;;;;;;;;17.50;15.75;;;;;12.36;71.78;102114.00;5108507;27;45455;-70
2022/01/01 10:40:37;;;;;;;;;14.75;13.50;;;;;12.33;70.37;102090.94;5092694;27;46226;-67
2022/01/01 10:43:02;;;;;;;;;18.00;14.33;;;;;12.57;72.54;102117.44;5085700;27;45410;-67
2022/01/01 10:45:39;;;;;;;;;13.25;12.75;;;;;12.64;72.81;102118.59;5082585;27;45233;-66
2022/01/01 10:48:13;;;;;;;;;15.00;13.00;;;;;12.62;69.84;102118.53;5079174;27;45316;-66
2022/01/01 10:50:41;;;;;;;;;13.00;13.00;;;;;12.66;71.09;102130.16;5093108;27;45343;-68
2022/01/01 10:53:24;;;;;;;;;15.67;15.67;;;;;12.52;70.23;102117.28;5098009;27;46042;-64
2022/01/01 10:55:52;;;;;;;;;15.67;14.00;;;;;12.54;70.72;102126.19;5096433;27;45362;-64
2022/01/01 10:58:26;;;;;;;;;13.33;11.67;;;;;12.49;70.21;102108.28;5082276;28;45469;-68
2022/01/01 11:00:57;;;;;;;;;14.50;11.00;;;;;12.56;70.77;102117.41;5093272;27;45381;-68
2022/01/01 11:03:23;;;;;;;;;15.33;14.00;;;;;12.64;69.28;102123.91;5082084;28;45362;-66
2022/01/01 11:05:51;;;;;;;;;16.00;15.00;;;;;12.63;69.11;102122.06;5093217;27;45512;-64
2022/01/01 11:08:17;;;;;;;;;16.00;16.00;;;;;12.53;70.20;102113.78;5088848;27;45316;-65
2022/01/01 11:10:43;;;;;;;;;21.00;16.33;;;;;12.61;68.87;102113.19;5097848;27;45468;-67
2022/01/01 11:13:10;;;;;;;;;16.00;14.00;;;;;12.52;71.00;102092.53;5081939;27;46615;-67
2022/01/01 11:15:36;;;;;;;;;19.67;16.67;;;;;12.62;69.52;102099.97;5087400;27;45265;-66
2022/01/01 11:18:02;;;;;;;;;13.00;11.67;;;;;12.68;72.71;102104.59;5093636;27;45298;-66